Terminal Aerodrome Forecast
Issued by NWS

Home | Current Version | Previous Version | Graphics & Text | Print | Product List | Glossary On
Versions: 1 2 3 4 5 6 7 8 9 10 11 12
488
FTUS43 KGRB 211124
TAFATW
TAF
KATW 211124Z 2112/2212 VRB03KT P6SM BKN100 BKN250
     FM211500 36005KT P6SM SCT060 SCT250
     FM212300 VRB03KT P6SM FEW070=

USA.gov is the U.S. government's official web portal to all federal, state and local government web resources and services.